createdAt,value
2022-09-02T00:02:12.550Z,11.75
2022-09-02T00:04:40.730Z,9.80
2022-09-02T00:07:10.161Z,11.63
2022-09-02T00:09:40.402Z,11.02
2022-09-02T00:12:09.665Z,11.50
2022-09-02T00:14:39.752Z,15.52
2022-09-02T00:17:07.944Z,9.95
2022-09-02T00:19:37.785Z,11.20
2022-09-02T00:22:05.792Z,10.95
2022-09-02T00:24:35.158Z,10.38
2022-09-02T00:27:04.011Z,9.65
2022-09-02T00:29:32.030Z,11.25
2022-09-02T00:32:00.327Z,10.82
2022-09-02T00:34:28.540Z,11.15
2022-09-02T00:36:56.708Z,12.32
2022-09-02T00:39:25.813Z,8.80
2022-09-02T00:41:55.485Z,8.98
2022-09-02T00:44:23.726Z,9.50
2022-09-02T00:46:51.848Z,8.77
2022-09-02T00:49:25.186Z,9.82
2022-09-02T00:51:56.413Z,9.85
2022-09-02T00:54:27.454Z,9.75
2022-09-02T00:56:57.346Z,9.45
2022-09-02T00:59:29.480Z,8.18
2022-09-02T01:01:58.318Z,9.77
2022-09-02T01:04:26.423Z,8.48
2022-09-02T01:06:54.471Z,11.23
2022-09-02T01:09:23.238Z,9.00
2022-09-02T01:11:55.429Z,9.90
2022-09-02T01:14:28.594Z,14.10
2022-09-02T01:17:00.925Z,13.57
2022-09-02T01:19:33.777Z,11.98
2022-09-02T01:22:03.256Z,12.98
2022-09-02T01:24:34.727Z,12.30
2022-09-02T01:27:02.737Z,12.38
2022-09-02T01:29:30.858Z,14.98
2022-09-02T01:31:58.923Z,13.40
2022-09-02T01:34:27.107Z,14.18
2022-09-02T01:36:55.092Z,20.33
2022-09-02T01:39:24.424Z,15.15
2022-09-02T01:41:53.136Z,16.77
2022-09-02T01:44:21.195Z,12.60
2022-09-02T01:46:49.252Z,15.07
2022-09-02T01:49:17.339Z,14.30
2022-09-02T01:51:45.370Z,13.93
2022-09-02T01:54:13.433Z,15.88
2022-09-02T01:56:43.092Z,14.68
2022-09-02T01:59:14.765Z,14.10
2022-09-02T02:01:42.858Z,12.23
2022-09-02T02:04:13.550Z,14.48
2022-09-02T02:06:43.214Z,18.55
2022-09-02T02:09:12.398Z,19.52
2022-09-02T02:11:41.912Z,16.05
2022-09-02T02:14:10.322Z,18.25
2022-09-02T02:16:38.448Z,15.35
2022-09-02T02:19:07.056Z,17.35
2022-09-02T02:21:35.231Z,15.50
2022-09-02T02:24:03.598Z,17.45
2022-09-02T02:26:32.212Z,16.52
2022-09-02T02:29:01.938Z,14.38
2022-09-02T02:31:30.098Z,17.42
2022-09-02T02:33:58.275Z,15.18
2022-09-02T02:36:26.592Z,18.83
2022-09-02T02:38:54.964Z,18.05
2022-09-02T02:41:23.414Z,19.05
2022-09-02T02:43:51.381Z,20.00
2022-09-02T02:46:20.831Z,18.25
2022-09-02T02:48:48.878Z,17.42
2022-09-02T02:51:16.985Z,18.98
2022-09-02T02:53:44.944Z,19.58
2022-09-02T02:56:12.933Z,18.85
2022-09-02T02:58:41.011Z,19.17
2022-09-02T03:01:09.054Z,15.82
2022-09-02T03:03:38.394Z,19.15
2022-09-02T03:06:06.819Z,18.95
2022-09-02T03:08:36.865Z,18.38
2022-09-02T03:11:08.212Z,21.45
2022-09-02T03:13:36.505Z,16.75
2022-09-02T03:16:06.091Z,15.50
2022-09-02T03:18:34.220Z,16.88
2022-09-02T03:21:08.463Z,18.52
2022-09-02T03:23:36.850Z,16.10
2022-09-02T03:26:11.065Z,17.98
2022-09-02T03:28:39.173Z,19.92
2022-09-02T03:31:07.948Z,16.77
2022-09-02T03:33:35.965Z,14.70
2022-09-02T03:36:05.534Z,18.95
2022-09-02T03:38:33.604Z,15.65
2022-09-02T03:41:01.616Z,21.65
2022-09-02T03:43:29.617Z,17.85
2022-09-02T03:45:57.690Z,21.88
2022-09-02T03:48:25.703Z,15.15
2022-09-02T03:50:53.751Z,17.15
2022-09-02T03:53:23.282Z,14.15
2022-09-02T03:55:51.503Z,22.38
2022-09-02T03:58:19.780Z,16.85
2022-09-02T04:00:52.498Z,17.38
2022-09-02T04:03:21.497Z,14.77
2022-09-02T04:05:50.729Z,17.52
2022-09-02T04:08:19.538Z,16.05
2022-09-02T04:10:50.517Z,16.17
2022-09-02T04:13:18.949Z,20.33
2022-09-02T04:15:51.846Z,16.95
2022-09-02T04:18:20.272Z,14.52
2022-09-02T04:20:48.586Z,16.20
2022-09-02T04:23:19.023Z,16.48
2022-09-02T04:25:48.513Z,16.77
2022-09-02T04:28:16.892Z,17.58
2022-09-02T04:30:45.101Z,17.58
2022-09-02T04:33:13.753Z,15.75
2022-09-02T04:35:42.643Z,15.27
2022-09-02T04:38:11.062Z,18.40
2022-09-02T04:40:41.781Z,19.10
2022-09-02T04:43:11.738Z,19.63
2022-09-02T04:45:41.926Z,26.30
2022-09-02T04:48:09.973Z,17.05
2022-09-02T04:50:39.693Z,17.00
2022-09-02T04:53:08.312Z,16.20
2022-09-02T04:55:36.650Z,17.33
2022-09-02T04:58:04.838Z,18.48
2022-09-02T05:00:34.286Z,20.30
2022-09-02T05:03:02.421Z,18.15
2022-09-02T05:05:35.002Z,24.40
2022-09-02T05:08:04.612Z,20.08
2022-09-02T05:10:33.066Z,19.80
2022-09-02T05:13:01.707Z,18.20
2022-09-02T05:15:30.782Z,29.27
2022-09-02T05:18:00.456Z,23.90
2022-09-02T05:20:29.940Z,23.08
2022-09-02T05:22:58.510Z,26.75
2022-09-02T05:25:27.493Z,19.92
2022-09-02T05:27:55.604Z,17.00
2022-09-02T05:30:24.319Z,19.20
2022-09-02T05:32:52.672Z,20.05
2022-09-02T05:35:22.319Z,18.38
2022-09-02T05:37:50.558Z,27.77
2022-09-02T05:40:22.526Z,21.23
2022-09-02T05:42:50.830Z,29.73
2022-09-02T05:45:19.821Z,23.80
2022-09-02T05:47:48.233Z,22.92
2022-09-02T05:50:16.559Z,18.88
2022-09-02T05:52:51.929Z,18.80
2022-09-02T05:55:20.151Z,21.50
2022-09-02T05:57:50.350Z,23.20
2022-09-02T06:00:18.726Z,24.65
2022-09-02T06:02:48.634Z,27.90
2022-09-02T06:05:19.104Z,24.50
2022-09-02T06:07:48.647Z,28.52
2022-09-02T06:10:16.891Z,27.25
2022-09-02T06:12:45.034Z,19.52
2022-09-02T06:15:14.989Z,24.15
2022-09-02T06:17:43.115Z,23.13
2022-09-02T06:20:12.039Z,25.55
2022-09-02T06:22:40.283Z,23.52
2022-09-02T06:25:10.176Z,24.02
2022-09-02T06:27:40.135Z,24.45
2022-09-02T06:30:09.648Z,18.88
2022-09-02T06:32:37.716Z,18.17
2022-09-02T06:35:08.163Z,15.88
2022-09-02T06:37:36.138Z,16.45
2022-09-02T06:40:05.621Z,14.20
2022-09-02T06:42:35.366Z,21.23
2022-09-02T06:45:03.705Z,15.30
2022-09-02T06:47:31.755Z,20.70
2022-09-02T06:50:00.033Z,17.27
2022-09-02T06:52:28.315Z,18.27
2022-09-02T06:54:56.320Z,17.92
2022-09-02T06:57:33.848Z,15.75
2022-09-02T07:00:04.740Z,15.27
2022-09-02T07:02:32.914Z,16.30
2022-09-02T07:05:15.271Z,12.25
2022-09-02T07:07:48.041Z,15.27
2022-09-02T07:10:16.558Z,11.65
2022-09-02T07:12:44.967Z,10.40
2022-09-02T07:15:14.768Z,13.68
2022-09-02T07:17:42.820Z,13.27
2022-09-02T07:20:11.370Z,11.82
2022-09-02T07:22:39.983Z,13.07
2022-09-02T07:25:09.696Z,16.08
2022-09-02T07:27:38.247Z,10.35
2022-09-02T07:30:07.757Z,9.50
2022-09-02T07:32:37.442Z,12.82
2022-09-02T07:35:07.261Z,11.15
2022-09-02T07:37:35.686Z,10.75
2022-09-02T07:40:05.102Z,10.55
2022-09-02T07:42:33.216Z,7.80
2022-09-02T07:45:01.415Z,11.55
2022-09-02T07:47:29.356Z,7.75
2022-09-02T07:52:46.992Z,10.45
2022-09-02T07:55:15.356Z,6.57
2022-09-02T07:57:43.422Z,8.07
2022-09-02T08:00:13.864Z,5.53
2022-09-02T08:02:42.242Z,7.07
2022-09-02T08:05:12.773Z,4.80
2022-09-02T08:07:40.861Z,5.78
2022-09-02T08:10:12.879Z,4.95
2022-09-02T08:12:41.792Z,3.90
2022-09-02T08:15:12.168Z,6.95
2022-09-02T08:17:41.941Z,3.50
2022-09-02T08:20:14.195Z,6.20
2022-09-02T08:22:42.554Z,5.10
2022-09-02T08:25:11.569Z,4.82
2022-09-02T08:27:41.895Z,6.25
2022-09-02T08:30:11.024Z,2.63
2022-09-02T08:32:40.116Z,5.10
2022-09-02T08:35:09.935Z,6.60
2022-09-02T08:37:39.801Z,5.53
2022-09-02T08:40:13.642Z,5.45
2022-09-02T08:42:49.679Z,6.75
2022-09-02T08:45:23.926Z,3.08
2022-09-02T08:47:59.821Z,4.47
2022-09-02T08:50:28.469Z,5.32
2022-09-02T08:53:06.461Z,5.38
2022-09-02T08:55:40.723Z,5.93
2022-09-02T08:58:08.646Z,4.80
2022-09-02T09:00:43.000Z,4.07
2022-09-02T09:03:20.788Z,6.43
2022-09-02T09:05:58.639Z,6.07
2022-09-02T09:08:34.743Z,3.75
2022-09-02T09:11:05.976Z,5.43
2022-09-02T09:14:10.450Z,5.03
2022-09-02T09:16:46.487Z,3.63
2022-09-02T09:19:16.445Z,6.05
2022-09-02T09:21:45.397Z,3.22
2022-09-02T09:24:27.690Z,4.22
2022-09-02T09:26:56.231Z,4.03
2022-09-02T09:29:24.194Z,4.38
2022-09-02T09:31:57.968Z,5.90
2022-09-02T09:34:25.988Z,3.50
2022-09-02T09:36:56.044Z,3.33
2022-09-02T09:39:28.134Z,3.30
2022-09-02T09:41:57.451Z,5.40
2022-09-02T09:44:38.435Z,2.80
2022-09-02T09:47:09.386Z,4.80
2022-09-02T09:49:37.865Z,4.40
2022-09-02T09:52:06.192Z,2.47
2022-09-02T09:54:35.529Z,3.63
2022-09-02T09:57:21.420Z,4.70
2022-09-02T09:59:55.925Z,4.15
2022-09-02T10:02:25.550Z,2.72
2022-09-02T10:04:54.481Z,4.30
2022-09-02T10:07:37.342Z,2.78
2022-09-02T10:10:18.092Z,2.70
2022-09-02T10:12:48.248Z,3.08
2022-09-02T10:15:17.880Z,3.05
2022-09-02T10:18:01.943Z,3.65
2022-09-02T10:20:48.624Z,4.95
2022-09-02T10:23:37.491Z,5.95
2022-09-02T10:26:17.213Z,3.33
2022-09-02T10:29:09.005Z,6.13
2022-09-02T10:31:47.065Z,3.90
2022-09-02T10:34:21.777Z,3.28
2022-09-02T10:37:11.669Z,4.65
2022-09-02T10:39:58.738Z,1.92
2022-09-02T10:42:36.524Z,5.13
2022-09-02T10:45:13.869Z,3.92
2022-09-02T10:47:42.037Z,3.67
2022-09-02T10:50:23.697Z,4.57
2022-09-02T10:53:12.992Z,3.00
2022-09-02T10:55:52.336Z,2.90
2022-09-02T10:58:28.343Z,3.53
2022-09-02T11:00:58.290Z,2.90
2022-09-02T11:03:31.632Z,2.65
2022-09-02T11:06:06.705Z,3.85
2022-09-02T11:08:40.588Z,2.35
2022-09-02T11:11:13.366Z,2.53
2022-09-02T11:16:20.784Z,3.30
2022-09-02T11:18:58.004Z,2.88
2022-09-02T11:21:35.411Z,2.30
2022-09-02T11:24:09.940Z,1.85
2022-09-02T11:26:42.344Z,2.42
2022-09-02T11:29:17.689Z,2.47
2022-09-02T11:31:50.430Z,3.08
2022-09-02T11:36:50.573Z,2.30
2022-09-02T11:39:51.565Z,2.72
2022-09-02T11:42:33.372Z,4.55
2022-09-02T11:45:33.594Z,3.13
2022-09-02T11:48:30.191Z,3.40
2022-09-02T11:51:38.681Z,5.32
2022-09-02T11:54:10.312Z,2.60
2022-09-02T11:56:46.350Z,2.35
2022-09-02T11:59:22.246Z,2.05
2022-09-02T12:01:54.298Z,5.38
2022-09-02T12:04:58.708Z,2.80
2022-09-02T12:07:29.609Z,5.57
2022-09-02T12:13:08.116Z,3.38
2022-09-02T12:15:38.378Z,3.35
2022-09-02T12:18:32.102Z,3.25
2022-09-02T12:21:16.304Z,4.50
2022-09-02T12:24:10.200Z,2.55
2022-09-02T12:27:19.998Z,6.97
2022-09-02T12:29:47.977Z,3.25
2022-09-02T12:33:02.482Z,2.50
2022-09-02T12:35:37.214Z,5.07
2022-09-02T12:38:27.088Z,3.45
2022-09-02T12:41:01.683Z,2.63
2022-09-02T12:43:35.566Z,3.35
2022-09-02T12:46:12.930Z,4.30
2022-09-02T12:48:45.294Z,2.13
2022-09-02T12:51:54.940Z,2.03
2022-09-02T12:54:28.829Z,2.85
2022-09-02T12:56:56.858Z,2.40
2022-09-02T12:59:30.004Z,3.92
2022-09-02T13:02:16.939Z,3.58
2022-09-02T13:04:52.228Z,2.67
2022-09-02T13:08:03.119Z,2.50
2022-09-02T13:10:56.109Z,2.63
2022-09-02T13:13:57.617Z,3.40
2022-09-02T13:16:39.457Z,2.88
2022-09-02T13:19:42.196Z,4.38
2022-09-02T13:22:45.997Z,2.42
2022-09-02T13:25:59.285Z,6.22
2022-09-02T13:28:53.459Z,1.83
2022-09-02T13:31:22.429Z,1.70
2022-09-02T13:34:00.214Z,4.10
2022-09-02T13:36:32.761Z,2.67
2022-09-02T13:39:16.819Z,3.03
2022-09-02T13:41:45.566Z,2.15
2022-09-02T13:44:20.998Z,1.45
2022-09-02T13:46:51.740Z,1.67
2022-09-02T13:49:22.743Z,4.13
2022-09-02T13:51:53.906Z,2.15
2022-09-02T13:54:33.263Z,1.55
2022-09-02T13:57:05.114Z,3.75
2022-09-02T13:59:39.102Z,1.50
2022-09-02T14:02:29.451Z,1.45
2022-09-02T14:05:00.632Z,2.75
2022-09-02T14:07:36.203Z,2.65
2022-09-02T14:10:10.364Z,3.40
2022-09-02T14:12:40.311Z,2.22
2022-09-02T14:15:11.515Z,3.05
2022-09-02T14:17:39.694Z,1.92
2022-09-02T14:20:18.684Z,1.95
2022-09-02T14:22:55.757Z,2.58
2022-09-02T14:25:31.182Z,2.05
2022-09-02T14:28:02.078Z,3.33
2022-09-02T14:30:35.680Z,5.35
2022-09-02T14:33:26.808Z,6.47
2022-09-02T14:36:01.417Z,1.90
2022-09-02T14:38:34.115Z,1.98
2022-09-02T14:41:08.436Z,4.70
2022-09-02T14:43:45.196Z,2.45
2022-09-02T14:46:25.114Z,2.25
2022-09-02T14:49:04.084Z,1.17
2022-09-02T14:51:39.206Z,1.90
2022-09-02T14:54:08.915Z,3.83
2022-09-02T14:56:50.646Z,2.40
2022-09-02T14:59:20.359Z,2.17
2022-09-02T15:01:52.020Z,2.28
2022-09-02T15:04:20.613Z,3.08
2022-09-02T15:06:49.855Z,2.47
2022-09-02T15:09:17.840Z,3.38
2022-09-02T15:11:50.170Z,1.85
2022-09-02T15:14:18.344Z,2.15
2022-09-02T15:16:46.667Z,4.88
2022-09-02T15:19:16.087Z,4.30
2022-09-02T15:21:44.262Z,2.05
2022-09-02T15:24:12.380Z,3.22
2022-09-02T15:26:41.664Z,2.10
2022-09-02T15:29:11.184Z,2.20
2022-09-02T15:31:39.234Z,2.17
2022-09-02T15:34:07.360Z,3.08
2022-09-02T15:36:36.415Z,2.15
2022-09-02T15:39:04.785Z,2.38
2022-09-02T15:41:32.918Z,4.00
2022-09-02T15:44:01.343Z,3.58
2022-09-02T15:46:33.860Z,2.20
2022-09-02T15:49:04.079Z,2.10
2022-09-02T15:51:32.786Z,3.35
2022-09-02T15:54:02.979Z,2.40
2022-09-02T15:56:34.785Z,2.95
2022-09-02T15:59:05.221Z,3.78
2022-09-02T16:01:35.459Z,1.83
2022-09-02T16:04:04.486Z,1.60
2022-09-02T16:06:34.769Z,1.77
2022-09-02T16:09:03.547Z,2.45
2022-09-02T16:11:31.467Z,3.95
2022-09-02T16:13:59.540Z,3.47
2022-09-02T16:16:27.807Z,2.72
2022-09-02T16:18:57.725Z,2.40
2022-09-02T16:21:26.651Z,1.40
2022-09-02T16:23:54.773Z,2.20
2022-09-02T16:26:27.831Z,3.03
2022-09-02T16:28:57.481Z,4.40
2022-09-02T16:31:27.741Z,2.75
2022-09-02T16:33:58.817Z,3.13
2022-09-02T16:36:32.991Z,4.22
2022-09-02T16:39:02.087Z,3.03
2022-09-02T16:41:34.413Z,2.30
2022-09-02T16:44:05.536Z,3.78
2022-09-02T16:46:35.004Z,3.53
2022-09-02T16:49:04.717Z,5.07
2022-09-02T16:51:33.404Z,4.38
2022-09-02T16:54:05.691Z,4.13
2022-09-02T16:56:34.648Z,4.82
2022-09-02T16:59:05.940Z,3.83
2022-09-02T17:01:36.003Z,4.70
2022-09-02T17:04:08.552Z,5.57
2022-09-02T17:06:41.984Z,4.43
2022-09-02T17:09:10.473Z,4.60
2022-09-02T17:11:41.203Z,3.47
2022-09-02T17:14:11.095Z,4.70
2022-09-02T17:16:41.241Z,4.95
2022-09-02T17:19:11.321Z,2.92
2022-09-02T17:21:42.375Z,4.97
2022-09-02T17:24:12.891Z,2.90
2022-09-02T17:26:43.605Z,3.30
2022-09-02T17:29:31.599Z,3.65
2022-09-02T17:32:01.533Z,3.10
2022-09-02T17:34:33.493Z,3.20
2022-09-02T17:37:01.507Z,4.80
2022-09-02T17:39:30.675Z,3.45
2022-09-02T17:41:57.891Z,2.90
2022-09-02T17:44:28.107Z,3.95
2022-09-02T17:46:59.158Z,8.52
2022-09-02T17:49:29.370Z,3.10
2022-09-02T17:52:01.874Z,4.78
2022-09-02T17:54:30.592Z,4.60
2022-09-02T17:57:09.600Z,5.22
2022-09-02T18:00:03.357Z,9.13
2022-09-02T18:03:06.447Z,7.38
2022-09-02T18:06:02.234Z,2.78
2022-09-02T18:08:39.863Z,6.93
2022-09-02T18:11:09.532Z,6.05
2022-09-02T18:13:47.642Z,3.50
2022-09-02T18:16:30.022Z,3.75
2022-09-02T18:19:13.789Z,4.07
2022-09-02T18:22:06.541Z,3.33
2022-09-02T18:25:08.385Z,2.40
2022-09-02T18:27:50.732Z,4.50
2022-09-02T18:30:24.288Z,3.33
2022-09-02T18:33:10.207Z,3.72
2022-09-02T18:35:50.693Z,3.67
2022-09-02T18:38:28.691Z,3.95
2022-09-02T18:41:19.719Z,4.72
2022-09-02T18:44:08.862Z,1.98
2022-09-02T18:46:47.119Z,3.25
2022-09-02T18:49:16.189Z,4.93
2022-09-02T18:51:45.836Z,4.55
2022-09-02T18:54:19.033Z,2.67
2022-09-02T18:56:54.220Z,4.90
2022-09-02T18:59:28.757Z,2.03
2022-09-02T19:01:59.682Z,3.42
2022-09-02T19:04:29.570Z,5.00
2022-09-02T19:07:18.752Z,6.70
2022-09-02T19:09:46.839Z,3.72
2022-09-02T19:12:16.425Z,5.75
2022-09-02T19:14:44.477Z,3.97
2022-09-02T19:17:12.717Z,3.33
2022-09-02T19:19:40.675Z,3.58
2022-09-02T19:22:10.707Z,3.13
2022-09-02T19:24:42.963Z,4.70
2022-09-02T19:27:16.499Z,3.95
2022-09-02T19:29:47.895Z,5.30
2022-09-02T19:32:16.555Z,4.82
2022-09-02T19:34:46.386Z,4.60
2022-09-02T19:37:22.382Z,11.50
2022-09-02T19:39:51.354Z,6.68
2022-09-02T19:42:24.208Z,6.40
2022-09-02T19:48:05.057Z,6.80
2022-09-02T19:50:09.331Z,7.82
2022-09-02T19:52:45.142Z,14.90
2022-09-02T19:55:16.028Z,6.53
2022-09-02T19:57:45.971Z,10.98
2022-09-02T20:00:15.896Z,4.20
2022-09-02T20:02:44.255Z,6.03
2022-09-02T20:05:13.896Z,4.05
2022-09-02T20:07:42.469Z,3.72
2022-09-02T20:10:12.004Z,2.95
2022-09-02T20:12:40.316Z,4.78
2022-09-02T20:15:10.464Z,7.25
2022-09-02T20:17:38.504Z,4.68
2022-09-02T20:20:13.278Z,5.45
2022-09-02T20:22:41.364Z,5.70
2022-09-02T20:25:09.751Z,5.50
2022-09-02T20:27:51.503Z,5.15
2022-09-02T20:30:21.319Z,6.05
2022-09-02T20:32:54.912Z,2.67
2022-09-02T20:35:57.287Z,7.25
2022-09-02T20:38:57.857Z,4.10
2022-09-02T20:41:35.025Z,3.90
2022-09-02T20:44:27.893Z,6.25
2022-09-02T20:47:13.740Z,4.03
2022-09-02T20:49:58.146Z,4.10
2022-09-02T20:52:34.978Z,3.13
2022-09-02T20:55:09.658Z,5.32
2022-09-02T20:58:13.798Z,3.78
2022-09-02T21:01:03.386Z,3.63
2022-09-02T21:03:45.206Z,3.63
2022-09-02T21:06:14.477Z,4.78
2022-09-02T21:08:58.235Z,4.43
2022-09-02T21:11:34.717Z,6.95
2022-09-02T21:14:10.209Z,5.25
2022-09-02T21:16:44.210Z,4.15
2022-09-02T21:19:18.930Z,5.63
2022-09-02T21:21:55.173Z,12.35
2022-09-02T21:24:28.561Z,12.70
2022-09-02T21:27:02.952Z,9.15
2022-09-02T21:29:36.984Z,8.20
2022-09-02T21:32:10.033Z,4.97
2022-09-02T21:37:12.831Z,5.60
2022-09-02T21:39:46.381Z,4.57
2022-09-02T21:42:23.641Z,3.72
2022-09-02T21:45:04.061Z,7.68
2022-09-02T21:47:38.502Z,3.00
2022-09-02T21:50:22.068Z,4.50
2022-09-02T21:53:04.697Z,5.82
2022-09-02T21:55:44.695Z,2.83
2022-09-02T21:58:31.312Z,3.60
2022-09-02T22:01:06.330Z,2.95
2022-09-02T22:03:41.641Z,5.22
2022-09-02T22:06:22.243Z,4.00
2022-09-02T22:08:58.512Z,4.25
2022-09-02T22:11:32.580Z,3.97
2022-09-02T22:14:09.999Z,3.17
2022-09-02T22:16:46.584Z,3.75
2022-09-02T22:19:16.121Z,5.00
2022-09-02T22:21:50.198Z,3.78
2022-09-02T22:24:20.289Z,2.22
2022-09-02T22:26:52.971Z,3.47
2022-09-02T22:29:27.111Z,3.15
2022-09-02T22:32:00.782Z,3.03
2022-09-02T22:34:31.353Z,7.65
2022-09-02T22:37:06.828Z,2.47
2022-09-02T22:39:42.709Z,5.85
2022-09-02T22:42:21.437Z,2.80
2022-09-02T22:45:12.611Z,5.32
2022-09-02T22:48:04.437Z,3.00
2022-09-02T22:50:56.210Z,3.67
2022-09-02T22:53:25.908Z,3.88
2022-09-02T22:56:02.312Z,2.88
2022-09-02T22:59:05.951Z,4.38
2022-09-02T23:01:47.032Z,3.47
2022-09-02T23:04:30.584Z,4.10
2022-09-02T23:07:07.276Z,2.20
2022-09-02T23:09:38.775Z,4.20
2022-09-02T23:12:18.722Z,4.72
2022-09-02T23:14:58.726Z,3.17
2022-09-02T23:17:36.030Z,5.20
2022-09-02T23:20:19.547Z,4.32
2022-09-02T23:23:11.047Z,5.50
2022-09-02T23:26:12.022Z,3.65
2022-09-02T23:28:58.895Z,5.70
2022-09-02T23:31:50.929Z,3.85
2022-09-02T23:34:30.807Z,11.93
2022-09-02T23:37:09.688Z,5.35
2022-09-02T23:39:51.736Z,5.28
2022-09-02T23:42:20.793Z,4.80
2022-09-02T23:44:51.123Z,2.70
2022-09-02T23:47:37.736Z,2.25
2022-09-02T23:50:18.889Z,5.82
2022-09-02T23:52:56.622Z,3.60
2022-09-02T23:55:39.405Z,2.70
2022-09-02T23:58:22.946Z,4.55
